sensor_id;sensor_type;location;lat;lon;timestamp;P1;durP1;ratioP1;P2;durP2;ratioP2
68854;SDS011;55859;55.710;12.464;2022-07-03T00:00:09;2.13;;;1.00;;
68854;SDS011;55859;55.710;12.464;2022-07-03T00:02:34;3.67;;;1.00;;
68854;SDS011;55859;55.710;12.464;2022-07-03T00:05:00;4.70;;;1.40;;
68854;SDS011;55859;55.710;12.464;2022-07-03T00:07:25;2.20;;;1.08;;
68854;SDS011;55859;55.710;12.464;2022-07-03T00:09:51;3.15;;;1.27;;
68854;SDS011;55859;55.710;12.464;2022-07-03T00:12:16;2.47;;;1.05;;
68854;SDS011;55859;55.710;12.464;2022-07-03T00:14:41;0.80;;;0.80;;
68854;SDS011;55859;55.710;12.464;2022-07-03T00:17:06;2.67;;;0.90;;
68854;SDS011;55859;55.710;12.464;2022-07-03T00:19:32;3.73;;;1.23;;
68854;SDS011;55859;55.710;12.464;2022-07-03T00:21:59;3.40;;;1.07;;
68854;SDS011;55859;55.710;12.464;2022-07-03T00:24:29;2.88;;;0.90;;
68854;SDS011;55859;55.710;12.464;2022-07-03T00:26:59;2.72;;;0.93;;
68854;SDS011;55859;55.710;12.464;2022-07-03T00:29:31;3.92;;;1.60;;
68854;SDS011;55859;55.710;12.464;2022-07-03T00:32:02;0.95;;;0.80;;
68854;SDS011;55859;55.710;12.464;2022-07-03T00:34:28;1.30;;;0.88;;
68854;SDS011;55859;55.710;12.464;2022-07-03T00:36:55;1.60;;;0.75;;
68854;SDS011;55859;55.710;12.464;2022-07-03T00:39:22;1.50;;;1.00;;
68854;SDS011;55859;55.710;12.464;2022-07-03T00:41:48;1.40;;;0.80;;
68854;SDS011;55859;55.710;12.464;2022-07-03T00:44:25;1.85;;;0.75;;
68854;SDS011;55859;55.710;12.464;2022-07-03T00:46:55;1.20;;;0.80;;
68854;SDS011;55859;55.710;12.464;2022-07-03T00:49:24;1.67;;;1.10;;
68854;SDS011;55859;55.710;12.464;2022-07-03T00:51:53;1.10;;;0.90;;
68854;SDS011;55859;55.710;12.464;2022-07-03T00:54:21;5.40;;;1.42;;
68854;SDS011;55859;55.710;12.464;2022-07-03T00:56:52;1.77;;;0.80;;
68854;SDS011;55859;55.710;12.464;2022-07-03T00:59:19;1.15;;;0.80;;
68854;SDS011;55859;55.710;12.464;2022-07-03T01:01:45;3.25;;;1.40;;
68854;SDS011;55859;55.710;12.464;2022-07-03T01:06:50;1.13;;;0.80;;
68854;SDS011;55859;55.710;12.464;2022-07-03T01:09:20;1.63;;;1.13;;
68854;SDS011;55859;55.710;12.464;2022-07-03T01:12:07;1.05;;;0.93;;
68854;SDS011;55859;55.710;12.464;2022-07-03T01:14:48;4.57;;;1.00;;
68854;SDS011;55859;55.710;12.464;2022-07-03T01:17:29;1.95;;;1.00;;
68854;SDS011;55859;55.710;12.464;2022-07-03T01:20:02;2.45;;;1.08;;
68854;SDS011;55859;55.710;12.464;2022-07-03T01:22:34;2.60;;;1.17;;
68854;SDS011;55859;55.710;12.464;2022-07-03T01:30:30;2.50;;;1.10;;
68854;SDS011;55859;55.710;12.464;2022-07-03T01:35:40;2.30;;;1.13;;
68854;SDS011;55859;55.710;12.464;2022-07-03T01:38:12;1.50;;;1.02;;
68854;SDS011;55859;55.710;12.464;2022-07-03T01:40:39;1.67;;;0.90;;
68854;SDS011;55859;55.710;12.464;2022-07-03T01:43:08;2.92;;;1.33;;
68854;SDS011;55859;55.710;12.464;2022-07-03T01:45:36;1.38;;;1.10;;
68854;SDS011;55859;55.710;12.464;2022-07-03T01:48:07;2.95;;;1.10;;
68854;SDS011;55859;55.710;12.464;2022-07-03T01:50:35;3.00;;;1.15;;
68854;SDS011;55859;55.710;12.464;2022-07-03T01:53:02;2.38;;;1.20;;
68854;SDS011;55859;55.710;12.464;2022-07-03T01:55:29;3.53;;;1.30;;
68854;SDS011;55859;55.710;12.464;2022-07-03T01:57:56;5.10;;;1.65;;
68854;SDS011;55859;55.710;12.464;2022-07-03T02:00:22;5.32;;;1.30;;
68854;SDS011;55859;55.710;12.464;2022-07-03T02:02:58;1.15;;;1.02;;
68854;SDS011;55859;55.710;12.464;2022-07-03T02:10:52;2.90;;;1.40;;
68854;SDS011;55859;55.710;12.464;2022-07-03T02:13:28;3.13;;;1.13;;
68854;SDS011;55859;55.710;12.464;2022-07-03T02:15:53;3.20;;;1.50;;
68854;SDS011;55859;55.710;12.464;2022-07-03T02:18:36;6.63;;;1.88;;
68854;SDS011;55859;55.710;12.464;2022-07-03T02:24:06;1.73;;;1.60;;
68854;SDS011;55859;55.710;12.464;2022-07-03T02:26:41;3.95;;;1.75;;
68854;SDS011;55859;55.710;12.464;2022-07-03T02:29:15;3.05;;;1.63;;
68854;SDS011;55859;55.710;12.464;2022-07-03T02:31:44;2.47;;;1.58;;
68854;SDS011;55859;55.710;12.464;2022-07-03T02:34:13;2.65;;;1.60;;
68854;SDS011;55859;55.710;12.464;2022-07-03T02:36:43;3.90;;;1.95;;
68854;SDS011;55859;55.710;12.464;2022-07-03T02:39:14;2.92;;;1.70;;
68854;SDS011;55859;55.710;12.464;2022-07-03T02:41:52;1.75;;;1.45;;
68854;SDS011;55859;55.710;12.464;2022-07-03T02:44:25;2.72;;;1.80;;
68854;SDS011;55859;55.710;12.464;2022-07-03T02:58:05;3.85;;;1.52;;
68854;SDS011;55859;55.710;12.464;2022-07-03T03:00:58;1.95;;;1.77;;
68854;SDS011;55859;55.710;12.464;2022-07-03T03:03:31;3.85;;;1.92;;
68854;SDS011;55859;55.710;12.464;2022-07-03T03:06:04;3.65;;;1.63;;
68854;SDS011;55859;55.710;12.464;2022-07-03T03:13:54;1.90;;;1.42;;
68854;SDS011;55859;55.710;12.464;2022-07-03T03:16:24;5.75;;;1.65;;
68854;SDS011;55859;55.710;12.464;2022-07-03T03:18:52;4.63;;;1.70;;
68854;SDS011;55859;55.710;12.464;2022-07-03T03:21:18;2.17;;;1.30;;
68854;SDS011;55859;55.710;12.464;2022-07-03T03:23:46;2.05;;;1.13;;
68854;SDS011;55859;55.710;12.464;2022-07-03T03:26:17;4.50;;;1.77;;
68854;SDS011;55859;55.710;12.464;2022-07-03T03:28:44;4.15;;;1.75;;
68854;SDS011;55859;55.710;12.464;2022-07-03T03:31:10;3.33;;;1.30;;
68854;SDS011;55859;55.710;12.464;2022-07-03T03:33:37;5.35;;;1.67;;
68854;SDS011;55859;55.710;12.464;2022-07-03T03:36:05;4.07;;;1.38;;
68854;SDS011;55859;55.710;12.464;2022-07-03T03:38:32;3.13;;;1.23;;
68854;SDS011;55859;55.710;12.464;2022-07-03T03:40:57;1.50;;;1.40;;
68854;SDS011;55859;55.710;12.464;2022-07-03T03:43:24;4.22;;;1.35;;
68854;SDS011;55859;55.710;12.464;2022-07-03T03:45:49;3.08;;;2.08;;
68854;SDS011;55859;55.710;12.464;2022-07-03T03:48:15;1.70;;;1.47;;
68854;SDS011;55859;55.710;12.464;2022-07-03T03:50:40;4.22;;;1.38;;
68854;SDS011;55859;55.710;12.464;2022-07-03T03:53:07;3.03;;;1.40;;
68854;SDS011;55859;55.710;12.464;2022-07-03T03:55:33;4.97;;;1.30;;
68854;SDS011;55859;55.710;12.464;2022-07-03T03:57:58;2.67;;;1.37;;
68854;SDS011;55859;55.710;12.464;2022-07-03T04:00:26;3.22;;;1.30;;
68854;SDS011;55859;55.710;12.464;2022-07-03T04:02:51;4.25;;;1.45;;
68854;SDS011;55859;55.710;12.464;2022-07-03T04:05:17;3.22;;;1.30;;
68854;SDS011;55859;55.710;12.464;2022-07-03T04:07:42;8.67;;;2.20;;
68854;SDS011;55859;55.710;12.464;2022-07-03T04:10:07;2.65;;;1.52;;
68854;SDS011;55859;55.710;12.464;2022-07-03T04:12:33;2.95;;;1.23;;
68854;SDS011;55859;55.710;12.464;2022-07-03T04:14:58;1.90;;;1.13;;
68854;SDS011;55859;55.710;12.464;2022-07-03T04:17:24;1.48;;;1.10;;
68854;SDS011;55859;55.710;12.464;2022-07-03T04:19:49;6.93;;;1.65;;
68854;SDS011;55859;55.710;12.464;2022-07-03T04:22:15;2.80;;;1.30;;
68854;SDS011;55859;55.710;12.464;2022-07-03T04:24:40;3.10;;;1.20;;
68854;SDS011;55859;55.710;12.464;2022-07-03T04:27:05;3.07;;;1.50;;
68854;SDS011;55859;55.710;12.464;2022-07-03T04:29:31;6.15;;;1.40;;
68854;SDS011;55859;55.710;12.464;2022-07-03T04:31:56;4.57;;;1.47;;
68854;SDS011;55859;55.710;12.464;2022-07-03T04:34:21;4.97;;;1.37;;
68854;SDS011;55859;55.710;12.464;2022-07-03T04:36:46;8.47;;;1.63;;
68854;SDS011;55859;55.710;12.464;2022-07-03T04:39:12;3.55;;;1.75;;
68854;SDS011;55859;55.710;12.464;2022-07-03T04:41:38;1.80;;;1.20;;
68854;SDS011;55859;55.710;12.464;2022-07-03T04:44:03;3.77;;;1.80;;
68854;SDS011;55859;55.710;12.464;2022-07-03T04:46:28;6.63;;;1.67;;
68854;SDS011;55859;55.710;12.464;2022-07-03T04:48:54;3.97;;;1.73;;
68854;SDS011;55859;55.710;12.464;2022-07-03T04:51:19;7.35;;;2.13;;
68854;SDS011;55859;55.710;12.464;2022-07-03T04:53:44;4.27;;;1.37;;
68854;SDS011;55859;55.710;12.464;2022-07-03T04:56:10;3.13;;;1.40;;
68854;SDS011;55859;55.710;12.464;2022-07-03T04:58:35;4.88;;;1.73;;
68854;SDS011;55859;55.710;12.464;2022-07-03T05:01:00;2.07;;;1.57;;
68854;SDS011;55859;55.710;12.464;2022-07-03T05:03:26;3.80;;;1.83;;
68854;SDS011;55859;55.710;12.464;2022-07-03T05:05:52;3.03;;;1.48;;
68854;SDS011;55859;55.710;12.464;2022-07-03T05:08:17;6.30;;;1.70;;
68854;SDS011;55859;55.710;12.464;2022-07-03T05:10:44;7.47;;;1.75;;
68854;SDS011;55859;55.710;12.464;2022-07-03T05:13:10;5.20;;;3.03;;
68854;SDS011;55859;55.710;12.464;2022-07-03T05:15:35;7.87;;;1.83;;
68854;SDS011;55859;55.710;12.464;2022-07-03T05:18:00;1.90;;;1.70;;
68854;SDS011;55859;55.710;12.464;2022-07-03T05:20:26;2.45;;;1.77;;
68854;SDS011;55859;55.710;12.464;2022-07-03T05:22:54;4.60;;;1.92;;
68854;SDS011;55859;55.710;12.464;2022-07-03T05:25:21;7.13;;;2.33;;
68854;SDS011;55859;55.710;12.464;2022-07-03T05:27:47;2.45;;;2.00;;
68854;SDS011;55859;55.710;12.464;2022-07-03T05:30:15;11.27;;;1.75;;
68854;SDS011;55859;55.710;12.464;2022-07-03T05:32:40;4.43;;;2.58;;
68854;SDS011;55859;55.710;12.464;2022-07-03T05:35:06;4.17;;;2.07;;
68854;SDS011;55859;55.710;12.464;2022-07-03T05:37:31;6.78;;;1.92;;
68854;SDS011;55859;55.710;12.464;2022-07-03T05:39:57;3.70;;;1.97;;
68854;SDS011;55859;55.710;12.464;2022-07-03T05:42:22;3.47;;;1.90;;
68854;SDS011;55859;55.710;12.464;2022-07-03T05:44:47;3.80;;;2.20;;
68854;SDS011;55859;55.710;12.464;2022-07-03T05:47:13;3.40;;;2.03;;
68854;SDS011;55859;55.710;12.464;2022-07-03T05:49:38;2.53;;;2.13;;
68854;SDS011;55859;55.710;12.464;2022-07-03T05:52:03;2.42;;;2.22;;
68854;SDS011;55859;55.710;12.464;2022-07-03T05:54:29;5.03;;;2.05;;
68854;SDS011;55859;55.710;12.464;2022-07-03T05:56:54;3.55;;;2.22;;
68854;SDS011;55859;55.710;12.464;2022-07-03T05:59:20;4.40;;;2.38;;
68854;SDS011;55859;55.710;12.464;2022-07-03T06:01:45;4.85;;;2.28;;
68854;SDS011;55859;55.710;12.464;2022-07-03T06:04:11;11.45;;;2.50;;
68854;SDS011;55859;55.710;12.464;2022-07-03T06:06:36;5.10;;;2.00;;
68854;SDS011;55859;55.710;12.464;2022-07-03T06:09:02;8.07;;;2.47;;
68854;SDS011;55859;55.710;12.464;2022-07-03T06:11:27;9.32;;;2.22;;
68854;SDS011;55859;55.710;12.464;2022-07-03T06:13:52;3.37;;;2.20;;
68854;SDS011;55859;55.710;12.464;2022-07-03T06:16:18;7.17;;;2.67;;
68854;SDS011;55859;55.710;12.464;2022-07-03T06:18:43;2.17;;;1.98;;
68854;SDS011;55859;55.710;12.464;2022-07-03T06:21:09;3.78;;;1.90;;
68854;SDS011;55859;55.710;12.464;2022-07-03T06:23:34;3.40;;;2.50;;
68854;SDS011;55859;55.710;12.464;2022-07-03T06:26:00;5.30;;;2.40;;
68854;SDS011;55859;55.710;12.464;2022-07-03T06:28:25;4.90;;;2.33;;
68854;SDS011;55859;55.710;12.464;2022-07-03T06:30:51;3.75;;;2.15;;
68854;SDS011;55859;55.710;12.464;2022-07-03T06:33:16;4.90;;;2.40;;
68854;SDS011;55859;55.710;12.464;2022-07-03T06:35:42;4.95;;;2.20;;
68854;SDS011;55859;55.710;12.464;2022-07-03T06:38:08;2.40;;;2.15;;
68854;SDS011;55859;55.710;12.464;2022-07-03T06:40:33;2.30;;;1.87;;
68854;SDS011;55859;55.710;12.464;2022-07-03T06:42:58;4.73;;;1.90;;
68854;SDS011;55859;55.710;12.464;2022-07-03T06:45:24;3.80;;;2.47;;
68854;SDS011;55859;55.710;12.464;2022-07-03T06:47:49;3.83;;;2.10;;
68854;SDS011;55859;55.710;12.464;2022-07-03T06:50:14;2.10;;;2.00;;
68854;SDS011;55859;55.710;12.464;2022-07-03T06:52:39;2.03;;;1.77;;
68854;SDS011;55859;55.710;12.464;2022-07-03T06:55:05;3.27;;;2.97;;
68854;SDS011;55859;55.710;12.464;2022-07-03T06:57:31;4.35;;;2.67;;
68854;SDS011;55859;55.710;12.464;2022-07-03T06:59:56;2.30;;;2.10;;
68854;SDS011;55859;55.710;12.464;2022-07-03T07:02:21;4.03;;;2.00;;
68854;SDS011;55859;55.710;12.464;2022-07-03T07:04:47;2.28;;;2.08;;
68854;SDS011;55859;55.710;12.464;2022-07-03T07:07:12;2.40;;;2.00;;
68854;SDS011;55859;55.710;12.464;2022-07-03T07:09:37;6.35;;;2.13;;
68854;SDS011;55859;55.710;12.464;2022-07-03T07:12:03;2.53;;;2.03;;
68854;SDS011;55859;55.710;12.464;2022-07-03T07:14:29;2.90;;;2.00;;
68854;SDS011;55859;55.710;12.464;2022-07-03T07:16:54;5.38;;;2.05;;
68854;SDS011;55859;55.710;12.464;2022-07-03T07:19:19;2.20;;;2.00;;
68854;SDS011;55859;55.710;12.464;2022-07-03T07:21:45;3.90;;;2.33;;
68854;SDS011;55859;55.710;12.464;2022-07-03T07:24:11;2.30;;;2.10;;
68854;SDS011;55859;55.710;12.464;2022-07-03T07:26:36;2.45;;;2.17;;
68854;SDS011;55859;55.710;12.464;2022-07-03T07:29:02;2.28;;;2.13;;
68854;SDS011;55859;55.710;12.464;2022-07-03T07:31:27;2.38;;;2.25;;
68854;SDS011;55859;55.710;12.464;2022-07-03T07:33:52;2.50;;;2.30;;
68854;SDS011;55859;55.710;12.464;2022-07-03T07:36:18;4.38;;;2.45;;
68854;SDS011;55859;55.710;12.464;2022-07-03T07:38:43;3.07;;;2.20;;
68854;SDS011;55859;55.710;12.464;2022-07-03T07:41:09;3.30;;;2.07;;
68854;SDS011;55859;55.710;12.464;2022-07-03T07:43:34;5.85;;;2.67;;
68854;SDS011;55859;55.710;12.464;2022-07-03T07:46:00;3.45;;;2.25;;
68854;SDS011;55859;55.710;12.464;2022-07-03T07:48:25;4.80;;;2.20;;
68854;SDS011;55859;55.710;12.464;2022-07-03T07:50:50;3.50;;;2.43;;
68854;SDS011;55859;55.710;12.464;2022-07-03T07:53:16;2.83;;;2.33;;
68854;SDS011;55859;55.710;12.464;2022-07-03T07:55:42;4.10;;;2.13;;
68854;SDS011;55859;55.710;12.464;2022-07-03T07:58:07;4.50;;;2.17;;
68854;SDS011;55859;55.710;12.464;2022-07-03T08:00:33;2.35;;;2.15;;
68854;SDS011;55859;55.710;12.464;2022-07-03T08:02:58;3.25;;;1.98;;
68854;SDS011;55859;55.710;12.464;2022-07-03T08:05:43;8.07;;;2.67;;
68854;SDS011;55859;55.710;12.464;2022-07-03T08:08:15;2.78;;;2.10;;
68854;SDS011;55859;55.710;12.464;2022-07-03T08:10:42;2.58;;;2.10;;
68854;SDS011;55859;55.710;12.464;2022-07-03T08:13:10;2.33;;;1.95;;
68854;SDS011;55859;55.710;12.464;2022-07-03T08:15:36;3.75;;;2.53;;
68854;SDS011;55859;55.710;12.464;2022-07-03T08:18:03;2.40;;;2.20;;
68854;SDS011;55859;55.710;12.464;2022-07-03T08:20:29;4.85;;;1.92;;
68854;SDS011;55859;55.710;12.464;2022-07-03T08:22:54;2.13;;;1.92;;
68854;SDS011;55859;55.710;12.464;2022-07-03T08:25:20;3.70;;;2.13;;
68854;SDS011;55859;55.710;12.464;2022-07-03T08:27:47;2.63;;;2.17;;
68854;SDS011;55859;55.710;12.464;2022-07-03T08:30:12;5.97;;;1.90;;
68854;SDS011;55859;55.710;12.464;2022-07-03T08:32:46;2.42;;;2.22;;
68854;SDS011;55859;55.710;12.464;2022-07-03T08:35:13;3.17;;;1.40;;
68854;SDS011;55859;55.710;12.464;2022-07-03T08:37:38;2.50;;;2.28;;
68854;SDS011;55859;55.710;12.464;2022-07-03T08:40:06;3.13;;;1.63;;
68854;SDS011;55859;55.710;12.464;2022-07-03T08:42:32;5.03;;;1.77;;
68854;SDS011;55859;55.710;12.464;2022-07-03T08:44:59;2.65;;;2.00;;
68854;SDS011;55859;55.710;12.464;2022-07-03T08:47:27;2.58;;;1.63;;
68854;SDS011;55859;55.710;12.464;2022-07-03T08:49:54;1.88;;;1.77;;
68854;SDS011;55859;55.710;12.464;2022-07-03T08:52:21;2.35;;;2.15;;
68854;SDS011;55859;55.710;12.464;2022-07-03T08:54:47;4.22;;;1.67;;
68854;SDS011;55859;55.710;12.464;2022-07-03T08:57:13;3.28;;;1.73;;
68854;SDS011;55859;55.710;12.464;2022-07-03T08:59:38;2.45;;;1.67;;
68854;SDS011;55859;55.710;12.464;2022-07-03T09:02:05;3.08;;;1.83;;
68854;SDS011;55859;55.710;12.464;2022-07-03T09:04:31;3.67;;;1.58;;
68854;SDS011;55859;55.710;12.464;2022-07-03T09:06:57;7.03;;;2.50;;
68854;SDS011;55859;55.710;12.464;2022-07-03T09:09:23;1.80;;;1.70;;
68854;SDS011;55859;55.710;12.464;2022-07-03T09:11:49;4.90;;;1.73;;
68854;SDS011;55859;55.710;12.464;2022-07-03T09:14:15;4.20;;;2.13;;
68854;SDS011;55859;55.710;12.464;2022-07-03T09:16:40;2.17;;;1.60;;
68854;SDS011;55859;55.710;12.464;2022-07-03T09:19:07;2.45;;;1.60;;
68854;SDS011;55859;55.710;12.464;2022-07-03T09:21:36;3.70;;;1.63;;
68854;SDS011;55859;55.710;12.464;2022-07-03T09:24:03;2.45;;;1.48;;
68854;SDS011;55859;55.710;12.464;2022-07-03T09:26:30;3.47;;;1.90;;
68854;SDS011;55859;55.710;12.464;2022-07-03T09:28:56;2.53;;;2.30;;
68854;SDS011;55859;55.710;12.464;2022-07-03T09:31:22;2.45;;;2.00;;
68854;SDS011;55859;55.710;12.464;2022-07-03T09:33:58;6.18;;;2.25;;
68854;SDS011;55859;55.710;12.464;2022-07-03T09:36:38;1.60;;;1.50;;
68854;SDS011;55859;55.710;12.464;2022-07-03T09:39:23;16.48;;;3.72;;
68854;SDS011;55859;55.710;12.464;2022-07-03T09:44:30;2.00;;;1.90;;
68854;SDS011;55859;55.710;12.464;2022-07-03T09:47:09;2.05;;;1.60;;
68854;SDS011;55859;55.710;12.464;2022-07-03T09:52:41;2.30;;;1.77;;
68854;SDS011;55859;55.710;12.464;2022-07-03T09:57:33;1.63;;;1.53;;
68854;SDS011;55859;55.710;12.464;2022-07-03T10:05:32;1.65;;;1.55;;
68854;SDS011;55859;55.710;12.464;2022-07-03T10:08:03;2.75;;;2.00;;
68854;SDS011;55859;55.710;12.464;2022-07-03T10:10:33;2.70;;;1.55;;
68854;SDS011;55859;55.710;12.464;2022-07-03T10:13:00;3.50;;;1.80;;
68854;SDS011;55859;55.710;12.464;2022-07-03T10:15:27;1.90;;;1.80;;
68854;SDS011;55859;55.710;12.464;2022-07-03T10:17:54;2.08;;;1.70;;
68854;SDS011;55859;55.710;12.464;2022-07-03T10:20:33;2.38;;;2.20;;
68854;SDS011;55859;55.710;12.464;2022-07-03T10:23:25;4.43;;;1.73;;
68854;SDS011;55859;55.710;12.464;2022-07-03T10:25:51;2.30;;;2.13;;
68854;SDS011;55859;55.710;12.464;2022-07-03T10:28:18;1.92;;;1.52;;
68854;SDS011;55859;55.710;12.464;2022-07-03T10:30:44;2.97;;;1.42;;
68854;SDS011;55859;55.710;12.464;2022-07-03T10:33:15;2.08;;;1.58;;
68854;SDS011;55859;55.710;12.464;2022-07-03T10:35:44;1.52;;;1.42;;
68854;SDS011;55859;55.710;12.464;2022-07-03T10:44:17;2.13;;;2.03;;
68854;SDS011;55859;55.710;12.464;2022-07-03T10:47:02;1.58;;;1.48;;
68854;SDS011;55859;55.710;12.464;2022-07-03T10:49:27;5.07;;;1.50;;
68854;SDS011;55859;55.710;12.464;2022-07-03T10:52:03;2.00;;;1.80;;
68854;SDS011;55859;55.710;12.464;2022-07-03T10:57:17;2.38;;;1.88;;
68854;SDS011;55859;55.710;12.464;2022-07-03T11:02:18;3.38;;;1.58;;
68854;SDS011;55859;55.710;12.464;2022-07-03T11:18:06;2.42;;;1.90;;
68854;SDS011;55859;55.710;12.464;2022-07-03T11:25:50;2.33;;;1.70;;
68854;SDS011;55859;55.710;12.464;2022-07-03T11:33:44;2.67;;;2.45;;
68854;SDS011;55859;55.710;12.464;2022-07-03T11:41:26;5.40;;;2.28;;
68854;SDS011;55859;55.710;12.464;2022-07-03T11:43:57;2.55;;;2.35;;
68854;SDS011;55859;55.710;12.464;2022-07-03T11:46:27;2.53;;;2.30;;
68854;SDS011;55859;55.710;12.464;2022-07-03T11:51:37;3.58;;;2.33;;
68854;SDS011;55859;55.710;12.464;2022-07-03T11:54:04;2.50;;;2.08;;
68854;SDS011;55859;55.710;12.464;2022-07-03T11:56:29;2.35;;;2.17;;
68854;SDS011;55859;55.710;12.464;2022-07-03T11:58:56;3.30;;;2.08;;
68854;SDS011;55859;55.710;12.464;2022-07-03T12:04:14;1.83;;;1.73;;
68854;SDS011;55859;55.710;12.464;2022-07-03T12:09:17;2.00;;;1.90;;
68854;SDS011;55859;55.710;12.464;2022-07-03T12:11:53;2.08;;;1.92;;
68854;SDS011;55859;55.710;12.464;2022-07-03T12:17:08;6.32;;;2.10;;
68854;SDS011;55859;55.710;12.464;2022-07-03T12:19:35;2.25;;;1.95;;
68854;SDS011;55859;55.710;12.464;2022-07-03T12:22:02;3.13;;;2.45;;
68854;SDS011;55859;55.710;12.464;2022-07-03T12:24:27;3.35;;;2.08;;
68854;SDS011;55859;55.710;12.464;2022-07-03T12:26:53;5.13;;;2.25;;
68854;SDS011;55859;55.710;12.464;2022-07-03T12:29:18;10.15;;;1.88;;
68854;SDS011;55859;55.710;12.464;2022-07-03T12:31:45;7.88;;;2.58;;
68854;SDS011;55859;55.710;12.464;2022-07-03T12:34:12;2.60;;;2.40;;
68854;SDS011;55859;55.710;12.464;2022-07-03T12:36:39;3.28;;;2.15;;
68854;SDS011;55859;55.710;12.464;2022-07-03T12:39:06;3.03;;;2.25;;
68854;SDS011;55859;55.710;12.464;2022-07-03T12:41:32;2.65;;;2.45;;
68854;SDS011;55859;55.710;12.464;2022-07-03T12:43:58;2.05;;;1.90;;
68854;SDS011;55859;55.710;12.464;2022-07-03T12:46:36;3.08;;;2.15;;
68854;SDS011;55859;55.710;12.464;2022-07-03T12:49:08;4.43;;;2.20;;
68854;SDS011;55859;55.710;12.464;2022-07-03T12:51:45;2.47;;;2.28;;
68854;SDS011;55859;55.710;12.464;2022-07-03T12:54:13;3.55;;;2.47;;
68854;SDS011;55859;55.710;12.464;2022-07-03T12:56:41;2.95;;;2.28;;
68854;SDS011;55859;55.710;12.464;2022-07-03T12:59:07;2.15;;;1.98;;
68854;SDS011;55859;55.710;12.464;2022-07-03T13:02:02;3.72;;;2.58;;
68854;SDS011;55859;55.710;12.464;2022-07-03T13:04:36;2.30;;;2.20;;
68854;SDS011;55859;55.710;12.464;2022-07-03T13:07:03;2.70;;;2.50;;
68854;SDS011;55859;55.710;12.464;2022-07-03T13:09:30;2.50;;;2.20;;
68854;SDS011;55859;55.710;12.464;2022-07-03T13:11:56;3.03;;;2.80;;
68854;SDS011;55859;55.710;12.464;2022-07-03T13:14:21;3.95;;;2.53;;
68854;SDS011;55859;55.710;12.464;2022-07-03T13:16:48;2.38;;;1.95;;
68854;SDS011;55859;55.710;12.464;2022-07-03T13:19:15;1.85;;;1.75;;
68854;SDS011;55859;55.710;12.464;2022-07-03T13:21:42;2.50;;;2.20;;
68854;SDS011;55859;55.710;12.464;2022-07-03T13:24:09;2.28;;;2.10;;
68854;SDS011;55859;55.710;12.464;2022-07-03T13:26:35;7.82;;;1.80;;
68854;SDS011;55859;55.710;12.464;2022-07-03T13:29:00;1.77;;;1.67;;
68854;SDS011;55859;55.710;12.464;2022-07-03T13:31:26;2.33;;;2.13;;
68854;SDS011;55859;55.710;12.464;2022-07-03T13:33:51;5.93;;;1.95;;
68854;SDS011;55859;55.710;12.464;2022-07-03T13:36:16;3.50;;;2.00;;
68854;SDS011;55859;55.710;12.464;2022-07-03T13:38:43;4.43;;;1.92;;
68854;SDS011;55859;55.710;12.464;2022-07-03T13:41:09;3.35;;;2.45;;
68854;SDS011;55859;55.710;12.464;2022-07-03T13:43:35;2.42;;;2.22;;
68854;SDS011;55859;55.710;12.464;2022-07-03T13:46:00;2.30;;;2.20;;
68854;SDS011;55859;55.710;12.464;2022-07-03T13:48:26;3.80;;;2.05;;
68854;SDS011;55859;55.710;12.464;2022-07-03T13:50:51;3.25;;;1.95;;
68854;SDS011;55859;55.710;12.464;2022-07-03T13:53:16;2.33;;;2.13;;
68854;SDS011;55859;55.710;12.464;2022-07-03T13:55:42;3.88;;;2.00;;
68854;SDS011;55859;55.710;12.464;2022-07-03T13:58:07;2.80;;;1.95;;
68854;SDS011;55859;55.710;12.464;2022-07-03T14:00:33;4.35;;;2.25;;
68854;SDS011;55859;55.710;12.464;2022-07-03T14:02:59;2.10;;;2.00;;
68854;SDS011;55859;55.710;12.464;2022-07-03T14:05:24;1.85;;;1.73;;
68854;SDS011;55859;55.710;12.464;2022-07-03T14:07:50;3.67;;;2.13;;
68854;SDS011;55859;55.710;12.464;2022-07-03T14:10:15;4.03;;;2.20;;
68854;SDS011;55859;55.710;12.464;2022-07-03T14:12:41;3.47;;;2.03;;
68854;SDS011;55859;55.710;12.464;2022-07-03T14:15:06;2.25;;;2.05;;
68854;SDS011;55859;55.710;12.464;2022-07-03T14:17:32;1.60;;;1.50;;
68854;SDS011;55859;55.710;12.464;2022-07-03T14:19:57;5.65;;;1.80;;
68854;SDS011;55859;55.710;12.464;2022-07-03T14:22:23;1.90;;;1.70;;
68854;SDS011;55859;55.710;12.464;2022-07-03T14:24:48;3.30;;;1.70;;
68854;SDS011;55859;55.710;12.464;2022-07-03T14:27:14;2.10;;;1.90;;
68854;SDS011;55859;55.710;12.464;2022-07-03T14:29:58;2.60;;;2.40;;
68854;SDS011;55859;55.710;12.464;2022-07-03T14:32:42;2.35;;;1.77;;
68854;SDS011;55859;55.710;12.464;2022-07-03T14:35:07;2.40;;;2.20;;
68854;SDS011;55859;55.710;12.464;2022-07-03T14:37:33;3.88;;;1.67;;
68854;SDS011;55859;55.710;12.464;2022-07-03T14:39:58;3.30;;;1.92;;
68854;SDS011;55859;55.710;12.464;2022-07-03T14:42:24;3.60;;;1.90;;
68854;SDS011;55859;55.710;12.464;2022-07-03T14:44:49;2.60;;;1.87;;
68854;SDS011;55859;55.710;12.464;2022-07-03T14:47:15;4.43;;;1.70;;
68854;SDS011;55859;55.710;12.464;2022-07-03T14:49:41;2.55;;;1.83;;
68854;SDS011;55859;55.710;12.464;2022-07-03T14:52:07;1.67;;;1.58;;
68854;SDS011;55859;55.710;12.464;2022-07-03T14:54:33;4.40;;;1.85;;
68854;SDS011;55859;55.710;12.464;2022-07-03T14:57:04;9.75;;;2.70;;
68854;SDS011;55859;55.710;12.464;2022-07-03T14:59:59;6.43;;;2.47;;
68854;SDS011;55859;55.710;12.464;2022-07-03T15:05:16;2.42;;;1.88;;
68854;SDS011;55859;55.710;12.464;2022-07-03T15:10:19;4.70;;;2.22;;
68854;SDS011;55859;55.710;12.464;2022-07-03T15:12:48;2.10;;;2.00;;
68854;SDS011;55859;55.710;12.464;2022-07-03T15:15:17;5.07;;;2.13;;
68854;SDS011;55859;55.710;12.464;2022-07-03T15:17:44;2.00;;;1.90;;
68854;SDS011;55859;55.710;12.464;2022-07-03T15:20:13;2.42;;;2.17;;
68854;SDS011;55859;55.710;12.464;2022-07-03T15:22:39;2.78;;;2.55;;
68854;SDS011;55859;55.710;12.464;2022-07-03T15:27:35;2.45;;;2.15;;
68854;SDS011;55859;55.710;12.464;2022-07-03T15:30:01;6.15;;;2.05;;
68854;SDS011;55859;55.710;12.464;2022-07-03T15:32:27;3.40;;;1.90;;
68854;SDS011;55859;55.710;12.464;2022-07-03T15:34:53;3.70;;;2.07;;
68854;SDS011;55859;55.710;12.464;2022-07-03T15:37:23;4.03;;;2.30;;
68854;SDS011;55859;55.710;12.464;2022-07-03T15:39:59;2.47;;;2.05;;
68854;SDS011;55859;55.710;12.464;2022-07-03T15:48:18;3.05;;;1.52;;
68854;SDS011;55859;55.710;12.464;2022-07-03T15:53:31;1.85;;;1.73;;
68854;SDS011;55859;55.710;12.464;2022-07-03T15:56:02;3.75;;;1.80;;
68854;SDS011;55859;55.710;12.464;2022-07-03T15:58:30;3.67;;;2.00;;
68854;SDS011;55859;55.710;12.464;2022-07-03T16:01:02;2.17;;;1.98;;
68854;SDS011;55859;55.710;12.464;2022-07-03T16:04:09;6.22;;;1.77;;
68854;SDS011;55859;55.710;12.464;2022-07-03T16:09:08;1.98;;;1.77;;
68854;SDS011;55859;55.710;12.464;2022-07-03T16:11:34;4.78;;;1.75;;
68854;SDS011;55859;55.710;12.464;2022-07-03T16:14:00;3.63;;;1.90;;
68854;SDS011;55859;55.710;12.464;2022-07-03T16:16:29;1.88;;;1.60;;
68854;SDS011;55859;55.710;12.464;2022-07-03T16:18:55;2.85;;;1.65;;
68854;SDS011;55859;55.710;12.464;2022-07-03T16:21:21;7.75;;;1.50;;
68854;SDS011;55859;55.710;12.464;2022-07-03T16:23:48;2.75;;;1.50;;
68854;SDS011;55859;55.710;12.464;2022-07-03T16:26:14;1.90;;;1.70;;
68854;SDS011;55859;55.710;12.464;2022-07-03T16:28:40;4.13;;;1.70;;
68854;SDS011;55859;55.710;12.464;2022-07-03T16:31:06;2.55;;;1.95;;
68854;SDS011;55859;55.710;12.464;2022-07-03T16:33:35;2.10;;;1.90;;
68854;SDS011;55859;55.710;12.464;2022-07-03T16:36:04;1.90;;;1.75;;